TimeEDT,TemperatureF,Dew PointF,Humidity,Sea Level PressureIn,VisibilityMPH,Wind Direction,Wind SpeedMPH,Gust SpeedMPH,PrecipitationIn,Events,Conditions,WindDirDegrees,DateUTC
12:00 AM,41.0,28.4,61,30.30,25.0,North,4.6,-,N/A,,Mostly Cloudy,10,2013-04-26 04:00:00
1:00 AM,37.4,28.4,70,30.32,25.0,NNE,6.9,-,N/A,,Scattered Clouds,20,2013-04-26 05:00:00
2:00 AM,37.4,26.6,65,30.32,25.0,NNE,4.6,-,N/A,,Scattered Clouds,30,2013-04-26 06:00:00
3:00 AM,37.4,26.6,65,30.33,25.0,NNE,3.5,-,N/A,,Mostly Cloudy,30,2013-04-26 07:00:00
4:00 AM,39.2,24.8,56,30.35,25.0,North,5.8,-,N/A,,Mostly Cloudy,10,2013-04-26 08:00:00
5:00 AM,39.2,24.8,56,30.36,25.0,North,3.5,-,N/A,,Overcast,10,2013-04-26 09:00:00
6:00 AM,39.2,26.6,61,30.38,45.0,North,4.6,-,N/A,,Overcast,350,2013-04-26 10:00:00
7:00 AM,39.2,26.6,61,30.41,45.0,North,5.8,-,N/A,,Overcast,350,2013-04-26 11:00:00
8:00 AM,42.8,28.4,57,30.42,25.0,North,6.9,-,N/A,,Overcast,360,2013-04-26 12:00:00
9:00 AM,41.0,26.6,57,30.46,25.0,East,6.9,-,N/A,,Overcast,90,2013-04-26 13:00:00
9:35 AM,41.0,30.2,65,30.47,15.0,East,8.1,-,N/A,Rain,Light Rain,90,2013-04-26 13:35:00
10:00 AM,41.0,30.2,65,30.48,15.0,East,4.6,-,N/A,Rain,Light Rain,80,2013-04-26 14:00:00
11:00 AM,42.8,33.8,70,30.48,25.0,NE,3.5,-,N/A,Rain,Light Rain,50,2013-04-26 15:00:00
11:26 AM,44.6,33.8,66,30.48,25.0,Calm,Calm,-,N/A,,Overcast,0,2013-04-26 15:26:00
12:00 PM,44.6,35.6,71,30.48,25.0,Calm,Calm,-,N/A,,Overcast,0,2013-04-26 16:00:00
1:00 PM,44.6,33.8,66,30.47,25.0,SW,4.6,-,N/A,,Overcast,230,2013-04-26 17:00:00
2:00 PM,48.2,35.6,62,30.47,25.0,SW,4.6,-,N/A,,Mostly Cloudy,230,2013-04-26 18:00:00
3:00 PM,46.4,35.6,66,30.47,25.0,SW,8.1,-,N/A,,Mostly Cloudy,230,2013-04-26 19:00:00
4:00 PM,46.4,35.6,66,30.46,25.0,WSW,3.5,-,N/A,,Mostly Cloudy,250,2013-04-26 20:00:00
5:00 PM,50.0,33.8,54,30.45,25.0,SW,6.9,-,N/A,,Mostly Cloudy,230,2013-04-26 21:00:00
6:00 PM,50.0,32.0,50,30.45,25.0,SSW,6.9,-,N/A,,Scattered Clouds,200,2013-04-26 22:00:00
7:00 PM,50.0,32.0,50,30.45,25.0,SW,3.5,-,N/A,,Partly Cloudy,220,2013-04-26 23:00:00
8:00 PM,46.4,33.8,62,30.45,25.0,ESE,2.3,-,N/A,,Partly Cloudy,120,2013-04-27 00:00:00
9:00 PM,44.6,32.0,61,30.46,25.0,Calm,Calm,-,N/A,,Clear,0,2013-04-27 01:00:00
10:00 PM,42.8,32.0,66,30.47,25.0,Calm,Calm,-,N/A,,Clear,0,2013-04-27 02:00:00
11:00 PM,39.2,32.0,75,30.46,25.0,NNW,2.3,-,N/A,,Clear,340,2013-04-27 03:00:00